Accueil
METAR-TAF:

METAR-TAF

Aéroports :

Aéroport international de Sunan

Pyongyang, Corée du Nord

latitude: 39-02N, longitude: 125-47E, altitude: 36 m

METAR: absent

Heure: 03:00 (18:30 UTC)

Prévision

Le bulletin a été fait il y a 14 heures et 20 minutes, à 04:10 UTC
Prévision valable du 22 à 06 UTC au 23 à 06 UTC
Vent 8 kt de sud/sud-ouest
Visibilité: 7000 m
Evoluant progressivement
du 22 à 08 UTC au 22 à 10 UTC
Nuages fragmentés à une hauteur de 3000 ft
Temporairement
du 22 à 13 UTC au 23 à 02 UTC
Visibilité: 5000 m
Ciel couvert à une hauteur de 2000 ft
pluie faible
Evoluant progressivement
du 23 à 03 UTC au 23 à 05 UTC
Vent 10 kt de nord-ouest
Visibilité 10 km ou plus
pas de nuages en-dessous de 1500 mètres et pas de cumulonimbus.

TAF: ZKPY 220410Z 2206/2306 21004MPS 7000 NSC TX19/2206Z TN07/2221Z BECMG 2208/2210 BKN030 TEMPO 2213/2302 5000 -RA OVC020 BECMG 2303/2305 31005MPS CAVOK

Observations et prévisions météorologiques de plus de 4000 aéroports (messages METAR et TAF).

Les stations disponibles sont représentées par des disques jaunes et rouges sur la carte.

Passer la souris dessus pour voir le nom de la station.

Cliquer dessus pour voir les observations et prévisions météorologiques.

Pour changer de carte: cliquez sur les boutons verts avec une croix noire pour zoomer, sur le bouton vert avec un tiret pour effectuer un zoom arrière, ou sur les flèches vertes pour les cartes adjacentes.


METAR-TAF: